sensor_id;sensor_type;location;lat;lon;timestamp;pressure;altitude;pressure_sealevel;temperature
8533;BMP280;4304;53.876;10.662;2022-12-18T00:02:09;103606.59;;;-139.81
8533;BMP280;4304;53.876;10.662;2022-12-18T00:04:36;103602.56;;;-139.81
8533;BMP280;4304;53.876;10.662;2022-12-18T00:07:02;103600.53;;;-139.81
8533;BMP280;4304;53.876;10.662;2022-12-18T00:09:27;103636.91;;;-139.81
8533;BMP280;4304;53.876;10.662;2022-12-18T00:11:52;103618.72;;;-139.81
8533;BMP280;4304;53.876;10.662;2022-12-18T00:14:17;103608.63;;;-139.81
8533;BMP280;4304;53.876;10.662;2022-12-18T00:16:45;103604.56;;;-139.81
8533;BMP280;4304;53.876;10.662;2022-12-18T00:19:15;103594.47;;;-139.81
8533;BMP280;4304;53.876;10.662;2022-12-18T00:21:41;103632.84;;;-139.81
8533;BMP280;4304;53.876;10.662;2022-12-18T00:24:08;103552.06;;;-139.81
8533;BMP280;4304;53.876;10.662;2022-12-18T00:26:34;103588.41;;;-139.81
8533;BMP280;4304;53.876;10.662;2022-12-18T00:29:03;103586.41;;;-139.81
8533;BMP280;4304;53.876;10.662;2022-12-18T00:31:29;103568.22;;;-139.81
8533;BMP280;4304;53.876;10.662;2022-12-18T00:33:55;103519.72;;;-139.81
8533;BMP280;4304;53.876;10.662;2022-12-18T00:36:23;103572.25;;;-139.81
8533;BMP280;4304;53.876;10.662;2022-12-18T00:38:49;103527.81;;;-139.81
8533;BMP280;4304;53.876;10.662;2022-12-18T00:41:16;103562.16;;;-139.81
8533;BMP280;4304;53.876;10.662;2022-12-18T00:43:41;103479.34;;;-139.81
8533;BMP280;4304;53.876;10.662;2022-12-18T00:46:07;103471.25;;;-139.81
8533;BMP280;4304;53.876;10.662;2022-12-18T00:48:32;103481.34;;;-139.81
8533;BMP280;4304;53.876;10.662;2022-12-18T00:50:58;103442.97;;;-139.81
8533;BMP280;4304;53.876;10.662;2022-12-18T00:53:23;103422.78;;;-139.81
8533;BMP280;4304;53.876;10.662;2022-12-18T00:55:53;103418.75;;;-139.81
8533;BMP280;4304;53.876;10.662;2022-12-18T00:58:18;103392.47;;;-139.81
8533;BMP280;4304;53.876;10.662;2022-12-18T01:00:44;103384.41;;;-139.81
8533;BMP280;4304;53.876;10.662;2022-12-18T01:03:13;103447.03;;;-139.81
8533;BMP280;4304;53.876;10.662;2022-12-18T01:05:39;103430.84;;;-139.81
8533;BMP280;4304;53.876;10.662;2022-12-18T01:08:05;103394.50;;;-139.81
8533;BMP280;4304;53.876;10.662;2022-12-18T01:10:31;103406.63;;;-139.81
8533;BMP280;4304;53.876;10.662;2022-12-18T01:12:56;103354.09;;;-139.81
8533;BMP280;4304;53.876;10.662;2022-12-18T01:15:22;103366.22;;;-139.81
8533;BMP280;4304;53.876;10.662;2022-12-18T01:17:47;103364.22;;;-139.81
8533;BMP280;4304;53.876;10.662;2022-12-18T01:20:13;103325.84;;;-139.81
8533;BMP280;4304;53.876;10.662;2022-12-18T01:22:38;103317.75;;;-139.81
8533;BMP280;4304;53.876;10.662;2022-12-18T01:25:04;103362.19;;;-139.81
8533;BMP280;4304;53.876;10.662;2022-12-18T01:27:30;103344.00;;;-139.81
8533;BMP280;4304;53.876;10.662;2022-12-18T01:29:56;103313.72;;;-139.81
8533;BMP280;4304;53.876;10.662;2022-12-18T01:32:21;103344.00;;;-139.81
8533;BMP280;4304;53.876;10.662;2022-12-18T01:34:46;103352.09;;;-139.81
8533;BMP280;4304;53.876;10.662;2022-12-18T01:37:12;103321.78;;;-139.81
8533;BMP280;4304;53.876;10.662;2022-12-18T01:39:37;103376.31;;;-139.81
8533;BMP280;4304;53.876;10.662;2022-12-18T01:42:03;103376.31;;;-139.81
8533;BMP280;4304;53.876;10.662;2022-12-18T01:47:50;103364.22;;;-139.81
8533;BMP280;4304;53.876;10.662;2022-12-18T01:50:21;103216.75;;;-139.81
8533;BMP280;4304;53.876;10.662;2022-12-18T01:53:07;103348.03;;;-139.81
8533;BMP280;4304;53.876;10.662;2022-12-18T01:55:42;103350.06;;;-139.81
8533;BMP280;4304;53.876;10.662;2022-12-18T01:58:08;103364.22;;;-139.81
8533;BMP280;4304;53.876;10.662;2022-12-18T02:00:33;103362.19;;;-139.81
8533;BMP280;4304;53.876;10.662;2022-12-18T02:02:59;103301.59;;;-139.81
8533;BMP280;4304;53.876;10.662;2022-12-18T02:10:51;103289.47;;;-139.81
8533;BMP280;4304;53.876;10.662;2022-12-18T02:13:21;103305.63;;;-139.81
8533;BMP280;4304;53.876;10.662;2022-12-18T02:16:16;103342.00;;;-139.81
8533;BMP280;4304;53.876;10.662;2022-12-18T02:18:47;103285.44;;;-139.81
8533;BMP280;4304;53.876;10.662;2022-12-18T02:24:21;103273.31;;;-139.81
8533;BMP280;4304;53.876;10.662;2022-12-18T02:26:46;103236.97;;;-139.81
8533;BMP280;4304;53.876;10.662;2022-12-18T02:29:44;103303.59;;;-139.81
8533;BMP280;4304;53.876;10.662;2022-12-18T02:32:15;103253.13;;;-139.81
8533;BMP280;4304;53.876;10.662;2022-12-18T02:34:43;103198.59;;;-139.81
8533;BMP280;4304;53.876;10.662;2022-12-18T02:37:14;103081.44;;;-139.81
8533;BMP280;4304;53.876;10.662;2022-12-18T02:39:42;103172.34;;;-139.81
8533;BMP280;4304;53.876;10.662;2022-12-18T02:42:08;103208.69;;;-139.81
8533;BMP280;4304;53.876;10.662;2022-12-18T02:44:41;103178.38;;;-139.81
8533;BMP280;4304;53.876;10.662;2022-12-18T02:47:12;103236.97;;;-139.81
8533;BMP280;4304;53.876;10.662;2022-12-18T03:03:34;103214.75;;;-139.81
8533;BMP280;4304;53.876;10.662;2022-12-18T03:06:32;103218.78;;;-139.81
8533;BMP280;4304;53.876;10.662;2022-12-18T03:09:02;103204.66;;;-139.81
8533;BMP280;4304;53.876;10.662;2022-12-18T03:11:33;103190.50;;;-139.81
8533;BMP280;4304;53.876;10.662;2022-12-18T03:14:03;103192.53;;;-139.81
8533;BMP280;4304;53.876;10.662;2022-12-18T03:16:29;103160.22;;;-139.81
8533;BMP280;4304;53.876;10.662;2022-12-18T03:19:02;103186.47;;;-139.81
8533;BMP280;4304;53.876;10.662;2022-12-18T03:21:33;103182.44;;;-139.81
8533;BMP280;4304;53.876;10.662;2022-12-18T03:24:01;103133.97;;;-139.81
8533;BMP280;4304;53.876;10.662;2022-12-18T03:26:29;103184.44;;;-139.81
8533;BMP280;4304;53.876;10.662;2022-12-18T03:28:59;103156.16;;;-139.81
8533;BMP280;4304;53.876;10.662;2022-12-18T03:31:36;103127.91;;;-139.81
8533;BMP280;4304;53.876;10.662;2022-12-18T03:34:04;103127.91;;;-139.81
8533;BMP280;4304;53.876;10.662;2022-12-18T03:36:30;103115.78;;;-139.81
8533;BMP280;4304;53.876;10.662;2022-12-18T03:38:58;103099.63;;;-139.81
8533;BMP280;4304;53.876;10.662;2022-12-18T03:49:47;103095.59;;;-139.81
8533;BMP280;4304;53.876;10.662;2022-12-18T03:52:14;103071.34;;;-139.81
8533;BMP280;4304;53.876;10.662;2022-12-18T03:54:42;103119.81;;;-139.81
8533;BMP280;4304;53.876;10.662;2022-12-18T03:57:21;103144.06;;;-139.81
8533;BMP280;4304;53.876;10.662;2022-12-18T03:59:50;103067.31;;;-139.81
8533;BMP280;4304;53.876;10.662;2022-12-18T04:02:17;103030.97;;;-139.81
8533;BMP280;4304;53.876;10.662;2022-12-18T04:04:43;103032.97;;;-139.81
8533;BMP280;4304;53.876;10.662;2022-12-18T04:07:12;103032.97;;;-139.81
8533;BMP280;4304;53.876;10.662;2022-12-18T04:09:38;103000.66;;;-139.81
8533;BMP280;4304;53.876;10.662;2022-12-18T04:12:05;102954.22;;;-139.81
8533;BMP280;4304;53.876;10.662;2022-12-18T04:14:30;102970.38;;;-139.81
8533;BMP280;4304;53.876;10.662;2022-12-18T04:16:55;103006.72;;;-139.81
8533;BMP280;4304;53.876;10.662;2022-12-18T04:19:21;103000.66;;;-139.81
8533;BMP280;4304;53.876;10.662;2022-12-18T04:21:52;103018.84;;;-139.81
8533;BMP280;4304;53.876;10.662;2022-12-18T04:24:17;102970.38;;;-139.81
8533;BMP280;4304;53.876;10.662;2022-12-18T04:26:43;102861.31;;;-139.81
8533;BMP280;4304;53.876;10.662;2022-12-18T04:29:08;102925.94;;;-139.81
8533;BMP280;4304;53.876;10.662;2022-12-18T04:31:33;102968.34;;;-139.81
8533;BMP280;4304;53.876;10.662;2022-12-18T04:33:59;102867.38;;;-139.81
8533;BMP280;4304;53.876;10.662;2022-12-18T04:36:33;103008.75;;;-139.81
8533;BMP280;4304;53.876;10.662;2022-12-18T04:38:58;102960.28;;;-139.81
8533;BMP280;4304;53.876;10.662;2022-12-18T04:41:24;102885.56;;;-139.81
8533;BMP280;4304;53.876;10.662;2022-12-18T04:43:49;102853.25;;;-139.81
8533;BMP280;4304;53.876;10.662;2022-12-18T04:46:14;102934.03;;;-139.81
8533;BMP280;4304;53.876;10.662;2022-12-18T04:48:40;102921.91;;;-139.81
8533;BMP280;4304;53.876;10.662;2022-12-18T04:51:06;102913.81;;;-139.81
8533;BMP280;4304;53.876;10.662;2022-12-18T04:53:39;102946.13;;;-139.81
8533;BMP280;4304;53.876;10.662;2022-12-18T04:56:13;102954.22;;;-139.81
8533;BMP280;4304;53.876;10.662;2022-12-18T04:58:40;102932.00;;;-139.81
8533;BMP280;4304;53.876;10.662;2022-12-18T05:01:07;102942.09;;;-139.81
8533;BMP280;4304;53.876;10.662;2022-12-18T05:03:37;102915.84;;;-139.81
8533;BMP280;4304;53.876;10.662;2022-12-18T05:06:04;102909.78;;;-139.81
8533;BMP280;4304;53.876;10.662;2022-12-18T05:08:29;102877.47;;;-139.81
8533;BMP280;4304;53.876;10.662;2022-12-18T05:11:02;102899.69;;;-139.81
8533;BMP280;4304;53.876;10.662;2022-12-18T05:13:29;102845.16;;;-139.81
8533;BMP280;4304;53.876;10.662;2022-12-18T05:15:55;102824.97;;;-139.81
8533;BMP280;4304;53.876;10.662;2022-12-18T05:18:21;102824.97;;;-139.81
8533;BMP280;4304;53.876;10.662;2022-12-18T05:20:49;102796.69;;;-139.81
8533;BMP280;4304;53.876;10.662;2022-12-18T05:23:14;102736.13;;;-139.81
8533;BMP280;4304;53.876;10.662;2022-12-18T05:25:40;102732.06;;;-139.81
8533;BMP280;4304;53.876;10.662;2022-12-18T05:28:05;102740.16;;;-139.81
8533;BMP280;4304;53.876;10.662;2022-12-18T05:30:30;102772.47;;;-139.81
8533;BMP280;4304;53.876;10.662;2022-12-18T05:32:57;102816.88;;;-139.81
8533;BMP280;4304;53.876;10.662;2022-12-18T05:35:22;102814.88;;;-139.81
8533;BMP280;4304;53.876;10.662;2022-12-18T05:37:50;102820.94;;;-139.81
8533;BMP280;4304;53.876;10.662;2022-12-18T05:40:15;102711.88;;;-139.81
8533;BMP280;4304;53.876;10.662;2022-12-18T05:42:40;102754.28;;;-139.81
8533;BMP280;4304;53.876;10.662;2022-12-18T05:45:06;102800.72;;;-139.81
8533;BMP280;4304;53.876;10.662;2022-12-18T05:47:31;102719.97;;;-139.81
8533;BMP280;4304;53.876;10.662;2022-12-18T05:49:57;102717.94;;;-139.81
8533;BMP280;4304;53.876;10.662;2022-12-18T05:52:22;102711.88;;;-139.81
8533;BMP280;4304;53.876;10.662;2022-12-18T05:54:48;102736.13;;;-139.81
8533;BMP280;4304;53.876;10.662;2022-12-18T05:57:13;102740.16;;;-139.81
8533;BMP280;4304;53.876;10.662;2022-12-18T05:59:45;102750.25;;;-139.81
8533;BMP280;4304;53.876;10.662;2022-12-18T06:02:11;102683.59;;;-139.81
8533;BMP280;4304;53.876;10.662;2022-12-18T06:04:36;102693.72;;;-139.81
8533;BMP280;4304;53.876;10.662;2022-12-18T06:07:04;102752.28;;;-139.81
8533;BMP280;4304;53.876;10.662;2022-12-18T06:09:29;102677.56;;;-139.81
8533;BMP280;4304;53.876;10.662;2022-12-18T06:11:55;102447.34;;;-139.81
8533;BMP280;4304;53.876;10.662;2022-12-18T06:14:21;102522.06;;;-139.81
8533;BMP280;4304;53.876;10.662;2022-12-18T06:16:46;102600.81;;;-139.81
8533;BMP280;4304;53.876;10.662;2022-12-18T06:19:15;102558.41;;;-139.81
8533;BMP280;4304;53.876;10.662;2022-12-18T06:21:40;102598.78;;;-139.81
8533;BMP280;4304;53.876;10.662;2022-12-18T06:24:06;102586.69;;;-139.81
8533;BMP280;4304;53.876;10.662;2022-12-18T06:26:31;102641.22;;;-139.81
8533;BMP280;4304;53.876;10.662;2022-12-18T06:28:57;102655.34;;;-139.81
8533;BMP280;4304;53.876;10.662;2022-12-18T06:31:22;102616.97;;;-139.81
8533;BMP280;4304;53.876;10.662;2022-12-18T06:33:47;102639.19;;;-139.81
8533;BMP280;4304;53.876;10.662;2022-12-18T06:36:13;102532.16;;;-139.81
8533;BMP280;4304;53.876;10.662;2022-12-18T06:38:41;102580.63;;;-139.81
8533;BMP280;4304;53.876;10.662;2022-12-18T06:41:08;102594.75;;;-139.81
8533;BMP280;4304;53.876;10.662;2022-12-18T06:43:33;102602.84;;;-139.81
8533;BMP280;4304;53.876;10.662;2022-12-18T06:46:00;102655.34;;;-139.81
8533;BMP280;4304;53.876;10.662;2022-12-18T06:48:25;102608.91;;;-139.81
8533;BMP280;4304;53.876;10.662;2022-12-18T06:50:50;102625.06;;;-139.81
8533;BMP280;4304;53.876;10.662;2022-12-18T06:53:16;102602.84;;;-139.81
8533;BMP280;4304;53.876;10.662;2022-12-18T06:55:42;102586.69;;;-139.81
8533;BMP280;4304;53.876;10.662;2022-12-18T06:58:07;102600.81;;;-139.81
8533;BMP280;4304;53.876;10.662;2022-12-18T07:00:46;102631.09;;;-139.81
8533;BMP280;4304;53.876;10.662;2022-12-18T07:03:11;102570.53;;;-139.81
8533;BMP280;4304;53.876;10.662;2022-12-18T07:05:40;102659.38;;;-139.81
8533;BMP280;4304;53.876;10.662;2022-12-18T07:08:06;102566.50;;;-139.81
8533;BMP280;4304;53.876;10.662;2022-12-18T07:10:31;102600.81;;;-139.81
8533;BMP280;4304;53.876;10.662;2022-12-18T07:12:57;102590.72;;;-139.81
8533;BMP280;4304;53.876;10.662;2022-12-18T07:15:23;102584.66;;;-139.81
8533;BMP280;4304;53.876;10.662;2022-12-18T07:17:48;102053.66;;;-139.81
8533;BMP280;4304;53.876;10.662;2022-12-18T07:20:14;102445.34;;;-139.81
8533;BMP280;4304;53.876;10.662;2022-12-18T07:22:41;102534.19;;;-139.81
8533;BMP280;4304;53.876;10.662;2022-12-18T07:25:07;102546.31;;;-139.81
8533;BMP280;4304;53.876;10.662;2022-12-18T07:27:32;102570.53;;;-139.81
8533;BMP280;4304;53.876;10.662;2022-12-18T07:29:57;102566.50;;;-139.81
8533;BMP280;4304;53.876;10.662;2022-12-18T07:32:23;102568.50;;;-139.81
8533;BMP280;4304;53.876;10.662;2022-12-18T07:34:48;102540.25;;;-139.81
8533;BMP280;4304;53.876;10.662;2022-12-18T07:37:14;102544.28;;;-139.81
8533;BMP280;4304;53.876;10.662;2022-12-18T07:39:39;102536.19;;;-139.81
8533;BMP280;4304;53.876;10.662;2022-12-18T07:42:07;102475.63;;;-139.81
8533;BMP280;4304;53.876;10.662;2022-12-18T07:44:32;102501.88;;;-139.81
8533;BMP280;4304;53.876;10.662;2022-12-18T07:46:58;102497.84;;;-139.81
8533;BMP280;4304;53.876;10.662;2022-12-18T07:49:25;102473.59;;;-139.81
8533;BMP280;4304;53.876;10.662;2022-12-18T07:51:51;102550.34;;;-139.81
8533;BMP280;4304;53.876;10.662;2022-12-18T07:54:16;102524.09;;;-139.81
8533;BMP280;4304;53.876;10.662;2022-12-18T07:56:41;102550.34;;;-139.81
8533;BMP280;4304;53.876;10.662;2022-12-18T07:59:07;102528.13;;;-139.81
8533;BMP280;4304;53.876;10.662;2022-12-18T08:01:33;102538.22;;;-139.81
8533;BMP280;4304;53.876;10.662;2022-12-18T08:03:58;102578.59;;;-139.81
8533;BMP280;4304;53.876;10.662;2022-12-18T08:06:24;102572.56;;;-139.81
8533;BMP280;4304;53.876;10.662;2022-12-18T08:08:53;102560.44;;;-139.81
8533;BMP280;4304;53.876;10.662;2022-12-18T08:11:19;102582.66;;;-139.81
8533;BMP280;4304;53.876;10.662;2022-12-18T08:13:44;102580.63;;;-139.81
8533;BMP280;4304;53.876;10.662;2022-12-18T08:16:09;102663.41;;;-139.81
8533;BMP280;4304;53.876;10.662;2022-12-18T08:18:36;102721.97;;;-139.81
8533;BMP280;4304;53.876;10.662;2022-12-18T08:23:38;102766.41;;;-139.81
8533;BMP280;4304;53.876;10.662;2022-12-18T08:26:04;102798.72;;;-139.81
8533;BMP280;4304;53.876;10.662;2022-12-18T08:28:29;102893.63;;;-139.81
8533;BMP280;4304;53.876;10.662;2022-12-18T08:30:55;102887.56;;;-139.81
8533;BMP280;4304;53.876;10.662;2022-12-18T08:33:20;102936.03;;;-139.81
8533;BMP280;4304;53.876;10.662;2022-12-18T08:35:45;102970.38;;;-139.81
8533;BMP280;4304;53.876;10.662;2022-12-18T08:38:11;103000.66;;;-139.81
8533;BMP280;4304;53.876;10.662;2022-12-18T08:40:36;103022.88;;;-139.81
8533;BMP280;4304;53.876;10.662;2022-12-18T08:43:16;103144.06;;;-139.81
8533;BMP280;4304;53.876;10.662;2022-12-18T08:45:41;103061.25;;;-139.81
8533;BMP280;4304;53.876;10.662;2022-12-18T08:48:06;103117.81;;;-139.81
8533;BMP280;4304;53.876;10.662;2022-12-18T08:50:32;102996.63;;;-139.81
8533;BMP280;4304;53.876;10.662;2022-12-18T08:52:57;103071.34;;;-139.81
8533;BMP280;4304;53.876;10.662;2022-12-18T08:55:22;103045.09;;;-139.81
8533;BMP280;4304;53.876;10.662;2022-12-18T08:57:51;103101.66;;;-139.81
8533;BMP280;4304;53.876;10.662;2022-12-18T09:00:16;103202.63;;;-139.81
8533;BMP280;4304;53.876;10.662;2022-12-18T09:02:42;103160.22;;;-139.81
8533;BMP280;4304;53.876;10.662;2022-12-18T09:05:25;103115.78;;;-139.81
8533;BMP280;4304;53.876;10.662;2022-12-18T09:07:51;102966.34;;;-139.81
8533;BMP280;4304;53.876;10.662;2022-12-18T09:10:16;103018.84;;;-139.81
8533;BMP280;4304;53.876;10.662;2022-12-18T09:12:42;103085.50;;;-139.81
8533;BMP280;4304;53.876;10.662;2022-12-18T09:15:07;103075.38;;;-139.81
8533;BMP280;4304;53.876;10.662;2022-12-18T09:17:33;103107.69;;;-139.81
8533;BMP280;4304;53.876;10.662;2022-12-18T09:19:59;103301.59;;;-139.81
8533;BMP280;4304;53.876;10.662;2022-12-18T09:22:24;103362.19;;;-139.81
8533;BMP280;4304;53.876;10.662;2022-12-18T09:24:50;103679.31;;;-139.81
8533;BMP280;4304;53.876;10.662;2022-12-18T09:27:15;104024.75;;;-139.81
8533;BMP280;4304;53.876;10.662;2022-12-18T09:29:40;104247.00;;;-139.81
8533;BMP280;4304;53.876;10.662;2022-12-18T09:32:12;104410.66;;;-139.81
8533;BMP280;4304;53.876;10.662;2022-12-18T09:34:37;103929.81;;;-139.81
8533;BMP280;4304;53.876;10.662;2022-12-18T09:37:02;104053.03;;;-139.81
8533;BMP280;4304;53.876;10.662;2022-12-18T09:39:28;104438.94;;;-139.81
8533;BMP280;4304;53.876;10.662;2022-12-18T09:41:55;104093.44;;;-139.81
8533;BMP280;4304;53.876;10.662;2022-12-18T09:47:18;104386.41;;;-139.81
8533;BMP280;4304;53.876;10.662;2022-12-18T09:49:48;104473.28;;;-139.81
8533;BMP280;4304;53.876;10.662;2022-12-18T09:52:37;104473.28;;;-139.81
8533;BMP280;4304;53.876;10.662;2022-12-18T09:55:34;104135.88;;;-139.81
8533;BMP280;4304;53.876;10.662;2022-12-18T09:58:28;103863.16;;;-139.81
8533;BMP280;4304;53.876;10.662;2022-12-18T10:01:00;103598.50;;;-139.81
8533;BMP280;4304;53.876;10.662;2022-12-18T10:03:32;103588.41;;;-139.81
8533;BMP280;4304;53.876;10.662;2022-12-18T10:11:59;103335.94;;;-139.81
8533;BMP280;4304;53.876;10.662;2022-12-18T10:14:57;103259.19;;;-139.81
8533;BMP280;4304;53.876;10.662;2022-12-18T10:17:51;103344.00;;;-139.81
8533;BMP280;4304;53.876;10.662;2022-12-18T10:20:44;103331.88;;;-139.81
8533;BMP280;4304;53.876;10.662;2022-12-18T10:26:06;103366.22;;;-139.81
8533;BMP280;4304;53.876;10.662;2022-12-18T10:28:35;103471.25;;;-139.81
8533;BMP280;4304;53.876;10.662;2022-12-18T10:31:01;103463.19;;;-139.81
8533;BMP280;4304;53.876;10.662;2022-12-18T10:33:31;103533.88;;;-139.81
8533;BMP280;4304;53.876;10.662;2022-12-18T10:36:24;103519.72;;;-139.81
8533;BMP280;4304;53.876;10.662;2022-12-18T10:38:49;103152.13;;;-139.81
8533;BMP280;4304;53.876;10.662;2022-12-18T10:43:43;103440.97;;;-139.81
8533;BMP280;4304;53.876;10.662;2022-12-18T10:48:37;103442.97;;;-139.81
8533;BMP280;4304;53.876;10.662;2022-12-18T10:51:05;103523.78;;;-139.81
8533;BMP280;4304;53.876;10.662;2022-12-18T10:53:35;103590.44;;;-139.81
8533;BMP280;4304;53.876;10.662;2022-12-18T10:56:03;103523.78;;;-139.81
8533;BMP280;4304;53.876;10.662;2022-12-18T10:58:38;103644.97;;;-139.81
8533;BMP280;4304;53.876;10.662;2022-12-18T11:01:15;103758.09;;;-139.81
8533;BMP280;4304;53.876;10.662;2022-12-18T11:03:43;103764.16;;;-139.81
8533;BMP280;4304;53.876;10.662;2022-12-18T11:06:23;103760.13;;;-139.81
8533;BMP280;4304;53.876;10.662;2022-12-18T11:08:59;103727.78;;;-139.81
8533;BMP280;4304;53.876;10.662;2022-12-18T11:11:25;103713.66;;;-139.81
8533;BMP280;4304;53.876;10.662;2022-12-18T11:14:05;103725.78;;;-139.81
8533;BMP280;4304;53.876;10.662;2022-12-18T11:16:36;103663.16;;;-139.81
8533;BMP280;4304;53.876;10.662;2022-12-18T11:19:20;103737.91;;;-139.81
8533;BMP280;4304;53.876;10.662;2022-12-18T11:21:58;103576.28;;;-139.81
8533;BMP280;4304;53.876;10.662;2022-12-18T11:24:33;103628.81;;;-139.81
8533;BMP280;4304;53.876;10.662;2022-12-18T11:27:01;103661.13;;;-139.81
8533;BMP280;4304;53.876;10.662;2022-12-18T11:29:38;103711.63;;;-139.81
8533;BMP280;4304;53.876;10.662;2022-12-18T11:32:38;103802.53;;;-139.81
8533;BMP280;4304;53.876;10.662;2022-12-18T11:37:38;103770.22;;;-139.81
8533;BMP280;4304;53.876;10.662;2022-12-18T11:40:18;103790.41;;;-139.81
8533;BMP280;4304;53.876;10.662;2022-12-18T11:42:53;103677.28;;;-139.81
8533;BMP280;4304;53.876;10.662;2022-12-18T11:45:31;103721.72;;;-139.81
8533;BMP280;4304;53.876;10.662;2022-12-18T11:50:28;103794.47;;;-139.81
8533;BMP280;4304;53.876;10.662;2022-12-18T11:52:55;103764.16;;;-139.81
8533;BMP280;4304;53.876;10.662;2022-12-18T11:55:41;103842.94;;;-139.81
8533;BMP280;4304;53.876;10.662;2022-12-18T12:01:13;103790.41;;;-139.81
8533;BMP280;4304;53.876;10.662;2022-12-18T12:09:31;103855.06;;;-139.81
8533;BMP280;4304;53.876;10.662;2022-12-18T12:12:15;103927.78;;;-139.81
8533;BMP280;4304;53.876;10.662;2022-12-18T12:17:45;104000.50;;;-139.81
8533;BMP280;4304;53.876;10.662;2022-12-18T12:23:01;103992.44;;;-139.81
8533;BMP280;4304;53.876;10.662;2022-12-18T12:28:59;104061.13;;;-139.81
8533;BMP280;4304;53.876;10.662;2022-12-18T12:37:28;103889.41;;;-139.81
8533;BMP280;4304;53.876;10.662;2022-12-18T12:39:50;104000.50;;;-139.81
8533;BMP280;4304;53.876;10.662;2022-12-18T12:45:27;103956.06;;;-139.81
8533;BMP280;4304;53.876;10.662;2022-12-18T12:47:54;103962.13;;;-139.81
8533;BMP280;4304;53.876;10.662;2022-12-18T12:50:21;104032.84;;;-139.81
8533;BMP280;4304;53.876;10.662;2022-12-18T12:52:54;104093.44;;;-139.81
8533;BMP280;4304;53.876;10.662;2022-12-18T12:55:24;103976.28;;;-139.81
8533;BMP280;4304;53.876;10.662;2022-12-18T13:00:56;104051.03;;;-139.81
8533;BMP280;4304;53.876;10.662;2022-12-18T13:03:51;104222.75;;;-139.81
8533;BMP280;4304;53.876;10.662;2022-12-18T13:09:03;104040.91;;;-139.81
8533;BMP280;4304;53.876;10.662;2022-12-18T13:11:42;103988.41;;;-139.81
8533;BMP280;4304;53.876;10.662;2022-12-18T13:14:23;104053.03;;;-139.81
8533;BMP280;4304;53.876;10.662;2022-12-18T13:16:49;104121.72;;;-139.81
8533;BMP280;4304;53.876;10.662;2022-12-18T13:19:25;104218.72;;;-139.81
8533;BMP280;4304;53.876;10.662;2022-12-18T13:21:55;104024.75;;;-139.81
8533;BMP280;4304;53.876;10.662;2022-12-18T13:24:30;104166.19;;;-139.81
8533;BMP280;4304;53.876;10.662;2022-12-18T13:26:56;104073.25;;;-139.81
8533;BMP280;4304;53.876;10.662;2022-12-18T13:29:41;104154.06;;;-139.81
8533;BMP280;4304;53.876;10.662;2022-12-18T13:32:22;104238.91;;;-139.81
8533;BMP280;4304;53.876;10.662;2022-12-18T13:34:48;103982.34;;;-139.81
8533;BMP280;4304;53.876;10.662;2022-12-18T13:37:52;104030.81;;;-139.81
8533;BMP280;4304;53.876;10.662;2022-12-18T13:45:48;103994.44;;;-139.81
8533;BMP280;4304;53.876;10.662;2022-12-18T13:48:19;104109.63;;;-139.81
8533;BMP280;4304;53.876;10.662;2022-12-18T13:50:51;103935.88;;;-139.81
8533;BMP280;4304;53.876;10.662;2022-12-18T13:53:23;103972.22;;;-139.81
8533;BMP280;4304;53.876;10.662;2022-12-18T13:55:49;103990.41;;;-139.81
8533;BMP280;4304;53.876;10.662;2022-12-18T13:58:15;104016.69;;;-139.81
8533;BMP280;4304;53.876;10.662;2022-12-18T14:00:43;104032.84;;;-139.81
8533;BMP280;4304;53.876;10.662;2022-12-18T14:03:18;104042.94;;;-139.81
8533;BMP280;4304;53.876;10.662;2022-12-18T14:05:44;103897.47;;;-139.81
8533;BMP280;4304;53.876;10.662;2022-12-18T14:08:13;103962.13;;;-139.81
8533;BMP280;4304;53.876;10.662;2022-12-18T14:10:45;104004.56;;;-139.81
8533;BMP280;4304;53.876;10.662;2022-12-18T14:13:19;103974.25;;;-139.81
8533;BMP280;4304;53.876;10.662;2022-12-18T14:15:49;104028.81;;;-139.81
8533;BMP280;4304;53.876;10.662;2022-12-18T14:18:41;103937.88;;;-139.81
8533;BMP280;4304;53.876;10.662;2022-12-18T14:21:18;104036.88;;;-139.81
8533;BMP280;4304;53.876;10.662;2022-12-18T14:23:44;103939.91;;;-139.81
8533;BMP280;4304;53.876;10.662;2022-12-18T14:26:27;104044.97;;;-139.81
8533;BMP280;4304;53.876;10.662;2022-12-18T14:28:52;104010.63;;;-139.81
8533;BMP280;4304;53.876;10.662;2022-12-18T14:31:26;104036.88;;;-139.81
8533;BMP280;4304;53.876;10.662;2022-12-18T14:33:52;104000.50;;;-139.81
8533;BMP280;4304;53.876;10.662;2022-12-18T14:36:20;103992.44;;;-139.81
8533;BMP280;4304;53.876;10.662;2022-12-18T14:38:54;103939.91;;;-139.81
8533;BMP280;4304;53.876;10.662;2022-12-18T14:41:21;103960.13;;;-139.81
8533;BMP280;4304;53.876;10.662;2022-12-18T14:43:49;103865.16;;;-139.81
8533;BMP280;4304;53.876;10.662;2022-12-18T14:46:28;104008.59;;;-139.81
8533;BMP280;4304;53.876;10.662;2022-12-18T14:48:54;103915.66;;;-139.81
8533;BMP280;4304;53.876;10.662;2022-12-18T14:51:28;103958.09;;;-139.81
8533;BMP280;4304;53.876;10.662;2022-12-18T14:56:30;104016.69;;;-139.81
8533;BMP280;4304;53.876;10.662;2022-12-18T14:59:02;103933.84;;;-139.81
8533;BMP280;4304;53.876;10.662;2022-12-18T15:01:36;103990.41;;;-139.81
8533;BMP280;4304;53.876;10.662;2022-12-18T15:04:02;103909.59;;;-139.81
8533;BMP280;4304;53.876;10.662;2022-12-18T15:06:31;103960.13;;;-139.81
8533;BMP280;4304;53.876;10.662;2022-12-18T15:08:59;103968.19;;;-139.81
8533;BMP280;4304;53.876;10.662;2022-12-18T15:11:34;103915.66;;;-139.81
8533;BMP280;4304;53.876;10.662;2022-12-18T15:14:00;103887.38;;;-139.81
8533;BMP280;4304;53.876;10.662;2022-12-18T15:16:50;103915.66;;;-139.81
8533;BMP280;4304;53.876;10.662;2022-12-18T15:19:15;103885.38;;;-139.81
8533;BMP280;4304;53.876;10.662;2022-12-18T15:21:42;103877.28;;;-139.81
8533;BMP280;4304;53.876;10.662;2022-12-18T15:24:16;103911.63;;;-139.81
8533;BMP280;4304;53.876;10.662;2022-12-18T15:26:42;103768.19;;;-139.81
8533;BMP280;4304;53.876;10.662;2022-12-18T15:29:19;103861.13;;;-139.81
8533;BMP280;4304;53.876;10.662;2022-12-18T15:31:58;103822.75;;;-139.81
8533;BMP280;4304;53.876;10.662;2022-12-18T15:34:24;103806.56;;;-139.81
8533;BMP280;4304;53.876;10.662;2022-12-18T15:36:50;103723.75;;;-139.81